Terminal Aerodrome Forecast
Issued by NWS Twin Cities, MN

Home | Current Version | Previous Version | Text Only | Print | Product List | Glossary On
Versions: 1 2 3 4 5 6 7 8 9 10 11 12 13 14 15 16 17 18 19 20 21
000
FTUS43 KMPX 161739
TAFSTC
TAF
KSTC 161739Z 1618/1718 29012KT P6SM VCSH BKN015 BKN050
     FM162000 29012KT P6SM -SHRA BKN025 BKN090
     FM170200 29009KT P6SM SCT020 BKN035
     FM170600 28008KT P6SM SCT050=

USA.gov is the U.S. government's official web portal to all federal, state and local government web resources and services.